Time;durP1;ratioP1;P1;durP2;ratioP2;P2;SDS_P1;SDS_P2;PMS_P1;PMS_P2;Temp;Humidity;BMP_temperature;BMP_pressure;BME280_temperature;BME280_humidity;BME280_pressure;Samples;Min_cycle;Max_cycle;Signal;HPM_P1;HPM_P2
2021/01/04 00:02:08;;;;;;;2.20;2.08;;;;;;;1.70;100.00;101674.61;1723334;83;21155;-50
2021/01/04 00:05:09;;;;;;;0.90;0.90;;;;;;;1.73;100.00;101678.78;1666691;85;21195;-50
2021/01/04 00:08:04;;;;;;;0.30;0.30;;;;;;;1.81;100.00;101669.77;1848447;76;29654;-49
2021/01/04 00:10:59;;;;;;;0.37;0.37;;;;;;;1.76;100.00;101670.86;1723970;81;21191;-48
2021/01/04 00:13:46;;;;;;;1.10;1.02;;;;;;;1.77;100.00;101667.95;1719819;82;21241;-51
2021/01/04 00:16:28;;;;;;;0.78;0.78;;;;;;;1.79;100.00;101665.08;1724892;83;21137;-51
2021/01/04 00:19:41;;;;;;;0.65;0.65;;;;;;;1.80;100.00;101657.30;1725070;81;21166;-51
2021/01/04 00:22:26;;;;;;;0.50;0.50;;;;;;;1.78;100.00;101664.25;1695912;84;21130;-51
2021/01/04 00:25:13;;;;;;;0.57;0.57;;;;;;;1.79;100.00;101662.39;1693637;83;21319;-51
2021/01/04 00:28:01;;;;;;;0.70;0.70;;;;;;;1.80;100.00;101658.65;1695976;84;21166;-50
2021/01/04 00:30:41;;;;;;;2.42;2.27;;;;;;;1.80;100.00;101657.30;1721162;81;21166;-51
2021/01/04 00:33:22;;;;;;;4.37;1.75;;;;;;;1.80;100.00;101657.30;1724969;83;21134;-51
2021/01/04 00:35:53;;;;;;;2.07;1.93;;;;;;;1.79;100.00;101654.30;1723683;83;21151;-51
2021/01/04 00:38:42;;;;;;;2.25;1.40;;;;;;;1.80;100.00;101655.44;1733447;81;21605;-51
2021/01/04 00:41:47;;;;;;;2.30;1.77;;;;;;;1.81;100.00;101649.56;1733285;82;21699;-50
2021/01/04 00:44:19;;;;;;;1.02;1.02;;;;;;;1.80;100.00;101646.00;1701010;82;22017;-51
2021/01/04 00:46:57;;;;;;;0.62;0.62;;;;;;;1.81;100.00;101648.21;1731483;82;26032;-51
2021/01/04 00:49:32;;;;;;;0.95;0.95;;;;;;;1.81;100.00;101642.81;1718390;82;21157;-50
2021/01/04 00:52:32;;;;;;;1.12;1.02;;;;;;;1.83;100.00;101642.09;1673549;84;21157;-51
2021/01/04 00:55:17;;;;;;;0.57;0.47;;;;;;;1.81;100.00;101637.43;1728222;82;21699;-50
2021/01/04 00:57:58;;;;;;;0.45;0.45;;;;;;;1.81;100.00;101642.81;1732591;82;21268;-51
2021/01/04 01:00:43;;;;;;;1.35;1.32;;;;;;;1.81;100.00;101638.78;1733165;82;21150;-51
2021/01/04 01:03:52;;;;;;;1.92;0.55;;;;;;;1.81;100.00;101646.86;1733401;82;21130;-51
2021/01/04 01:06:45;;;;;;;1.30;0.98;;;;;;;1.81;100.00;101634.73;1733339;81;21181;-51
2021/01/04 01:09:13;;;;;;;;;;;;;;;1.81;100.00;101626.65;1735950;82;21118;-51
2021/01/04 01:11:58;;;;;;;0.25;0.25;;;;;;;1.81;100.00;101632.87;1733372;81;20520;-51
2021/01/04 01:14:44;;;;;;;0.15;0.15;;;;;;;1.80;100.00;101622.27;1733252;81;21121;-51
2021/01/04 01:17:41;;;;;;;0.20;0.20;;;;;;;1.80;100.00;101629.83;1703689;84;21612;-50
2021/01/04 01:20:15;;;;;;;1.05;0.53;;;;;;;1.80;100.00;101629.83;1703339;82;21150;-51
2021/01/04 01:22:42;;;;;;;0.82;0.82;;;;;;;1.81;100.00;101628.00;1703196;84;21607;-50
2021/01/04 01:25:20;;;;;;;2.33;2.12;;;;;;;1.82;100.00;101633.17;1725820;82;21431;-51
2021/01/04 01:28:02;;;;;;;1.47;1.37;;;;;;;1.82;100.00;101626.95;1732326;82;21623;-51
2021/01/04 01:30:55;;;;;;;2.55;1.98;;;;;;;1.83;100.00;101621.88;1732809;81;21109;-51
2021/01/04 01:34:04;;;;;;;0.55;0.55;;;;;;;1.83;100.00;101620.03;1732864;81;21126;-51
2021/01/04 01:36:49;;;;;;;0.93;0.90;;;;;;;1.84;100.00;101618.17;1732652;82;21165;-51
2021/01/04 01:40:05;;;;;;;0.82;0.60;;;;;;;1.83;100.00;101615.13;1732755;82;21133;-50
2021/01/04 01:43:06;;;;;;;2.90;0.37;;;;;;;1.83;100.00;101614.64;1732564;82;21472;-51
2021/01/04 01:45:41;;;;;;;1.35;1.35;;;;;;;1.85;100.00;101618.48;1732685;82;21115;-50
2021/01/04 01:48:29;;;;;;;2.55;1.00;;;;;;;1.86;100.00;101616.13;1732513;82;21157;-50
2021/01/04 01:51:04;;;;;;;0.30;0.30;;;;;;;1.85;100.00;101622.52;1703266;84;21178;-50
2021/01/04 01:53:58;;;;;;;3.65;1.85;;;;;;;1.85;100.00;101614.44;1703455;82;21006;-50
2021/01/04 01:56:39;;;;;;;0.90;0.85;;;;;;;1.87;100.00;101617.77;1703344;84;21141;-50
2021/01/04 01:59:33;;;;;;;0.53;0.53;;;;;;;1.87;100.00;101613.73;1725390;82;21507;-50
2021/01/04 02:02:09;;;;;;;0.25;0.25;;;;;;;1.87;100.00;101615.08;1732230;82;20999;-50
2021/01/04 02:05:00;;;;;;;1.47;1.35;;;;;;;1.87;100.00;101622.64;1732429;82;21182;-50
2021/01/04 02:07:58;;;;;;;0.75;0.75;;;;;;;1.88;100.00;101626.17;1747536;81;21158;-50
2021/01/04 02:10:37;;;;;;;2.65;1.35;;;;;;;1.88;100.00;101624.82;1756537;81;21652;-50
2021/01/04 02:13:20;;;;;;;0.60;0.60;;;;;;;1.87;100.00;101616.43;1731355;81;21130;-50
2021/01/04 02:15:58;;;;;;;1.22;1.22;;;;;;;1.88;100.00;101620.78;1724624;81;21683;-50
2021/01/04 02:19:00;;;;;;;0.20;0.20;;;;;;;1.88;100.00;101622.98;1756393;81;21150;-50
2021/01/04 02:22:08;;;;;;;0.45;0.45;;;;;;;1.88;100.00;101614.04;1756352;81;21178;-50
2021/01/04 02:24:35;;;;;;;0.75;0.62;;;;;;;1.87;100.00;101616.43;1756432;81;21143;-50
2021/01/04 02:27:11;;;;;;;1.55;1.45;;;;;;;1.87;100.00;101621.30;1756607;81;21161;-50
2021/01/04 02:29:39;;;;;;;1.32;1.22;;;;;;;1.88;100.00;101632.91;1754728;81;21150;-51
2021/01/04 02:32:07;;;;;;;1.52;1.42;;;;;;;1.86;100.00;101626.38;1756713;81;21166;-50
2021/01/04 02:34:41;;;;;;;0.65;0.65;;;;;;;1.87;100.00;101624.52;1728845;81;21142;-50
2021/01/04 02:37:09;;;;;;;0.80;0.47;;;;;;;1.87;100.00;101628.56;1756597;81;21123;-50
2021/01/04 02:39:54;;;;;;;0.35;0.35;;;;;;;1.87;100.00;101639.34;1756503;80;21656;-50
2021/01/04 02:42:35;;;;;;;1.85;1.45;;;;;;;1.87;100.00;101637.47;1756470;81;21151;-50
2021/01/04 02:45:16;;;;;;;0.23;0.23;;;;;;;1.85;100.00;101640.87;1756483;80;21592;-50
2021/01/04 02:48:07;;;;;;;2.33;1.25;;;;;;;1.87;100.00;101647.42;1755580;81;21119;-49
2021/01/04 02:51:12;;;;;;;6.80;0.98;;;;;;;1.86;100.00;101627.73;1756362;81;21431;-50
2021/01/04 02:53:54;;;;;;;3.20;1.12;;;;;;;1.86;100.00;101617.47;1756561;81;21071;-50
2021/01/04 02:57:07;;;;;;;2.95;2.37;;;;;;;1.85;100.00;101612.56;1756547;81;21453;-50
2021/01/04 02:59:52;;;;;;;0.33;0.33;;;;;;;1.85;100.00;101617.13;1756611;81;21402;-50
2021/01/04 03:02:44;;;;;;;0.50;0.50;;;;;;;1.84;100.00;101626.26;1756520;81;21177;-50
2021/01/04 03:05:19;;;;;;;4.37;0.93;;;;;;;1.85;100.00;101615.78;1731579;81;21170;-50
2021/01/04 03:07:55;;;;;;;0.65;0.57;;;;;;;1.84;100.00;101611.43;1756416;81;21147;-50
2021/01/04 03:10:35;;;;;;;0.75;0.75;;;;;;;1.85;100.00;101609.05;1728793;81;21111;-50
2021/01/04 03:13:19;;;;;;;1.40;0.57;;;;;;;1.84;100.00;101617.65;1756636;81;21131;-50
2021/01/04 03:16:17;;;;;;;1.60;1.52;;;;;;;1.85;100.00;101625.22;1756522;81;21213;-50
2021/01/04 03:18:51;;;;;;;0.23;0.23;;;;;;;1.83;100.00;101620.03;1756464;81;21138;-50
2021/01/04 03:21:25;;;;;;;0.60;0.60;;;;;;;1.84;100.00;101624.39;1729226;81;21131;-50
2021/01/04 03:23:52;;;;;;;3.40;1.85;;;;;;;1.84;100.00;101622.22;1756499;81;21537;-50
2021/01/04 03:26:23;;;;;;;0.55;0.55;;;;;;;1.84;100.00;101618.17;1756298;81;21122;-50
2021/01/04 03:28:50;;;;;;;0.30;0.30;;;;;;;1.82;100.00;101610.78;1756370;81;21434;-50
2021/01/04 03:31:18;;;;;;;2.00;1.47;;;;;;;1.84;100.00;101611.43;1756526;81;21143;-51
2021/01/04 03:33:45;;;;;;;0.40;0.40;;;;;;;1.84;100.00;101604.69;1756506;81;21118;-50
2021/01/04 03:36:13;;;;;;;1.35;1.00;;;;;;;1.84;100.00;101614.13;1756449;81;21596;-50
2021/01/04 03:38:40;;;;;;;0.23;0.23;;;;;;;1.83;100.00;101620.03;1756435;81;21131;-50
2021/01/04 03:41:08;;;;;;;1.17;1.00;;;;;;;1.82;100.00;101625.09;1756301;81;21154;-51
2021/01/04 03:43:35;;;;;;;0.68;0.68;;;;;;;1.83;100.00;101620.52;1756486;81;21397;-50
2021/01/04 03:46:03;;;;;;;2.67;2.47;;;;;;;1.83;100.00;101626.78;1756618;80;21454;-50
2021/01/04 03:48:31;;;;;;;2.37;1.27;;;;;;;1.83;100.00;101645.64;1756389;80;21138;-50
2021/01/04 03:50:58;;;;;;;0.95;0.95;;;;;;;1.84;100.00;101647.81;1756612;81;21645;-51
2021/01/04 03:53:25;;;;;;;3.08;1.60;;;;;;;1.86;100.00;101648.47;1756292;80;21143;-50
2021/01/04 03:55:52;;;;;;;0.55;0.23;;;;;;;1.87;100.00;101642.03;1756353;81;21123;-50
2021/01/04 03:58:19;;;;;;;0.40;0.40;;;;;;;1.87;100.00;101643.38;1756401;80;21134;-50
2021/01/04 04:00:47;;;;;;;0.88;0.88;;;;;;;1.88;100.00;101635.60;1756437;81;21150;-50
2021/01/04 04:03:14;;;;;;;2.72;1.77;;;;;;;1.87;100.00;101646.91;1756474;81;21569;-50
2021/01/04 04:05:41;;;;;;;0.60;0.50;;;;;;;1.86;100.00;101640.37;1756434;81;21152;-50
2021/01/04 04:08:08;;;;;;;0.33;0.33;;;;;;;1.86;100.00;101631.77;1740893;81;21171;-50
2021/01/04 04:10:35;;;;;;;2.08;1.22;;;;;;;1.87;100.00;101627.20;1732482;81;21146;-50
2021/01/04 04:13:03;;;;;;;0.75;0.75;;;;;;;1.85;100.00;101625.22;1732677;82;21411;-50
2021/01/04 04:15:30;;;;;;;0.33;0.33;;;;;;;1.84;100.00;101632.99;1732610;81;21406;-50
2021/01/04 04:17:58;;;;;;;1.35;1.20;;;;;;;1.83;100.00;101627.27;1732523;82;21169;-51
2021/01/04 04:20:25;;;;;;;0.80;0.80;;;;;;;1.81;100.00;101628.83;1732528;81;21470;-50
2021/01/04 04:22:54;;;;;;;0.55;0.50;;;;;;;1.80;100.00;101633.05;1732547;82;21154;-50
2021/01/04 04:25:23;;;;;;;1.27;0.65;;;;;;;1.79;100.00;101622.78;1732577;81;21523;-50
2021/01/04 04:27:52;;;;;;;0.28;0.28;;;;;;;1.76;100.00;101627.22;1732520;82;21134;-51
2021/01/04 04:30:21;;;;;;;1.57;1.47;;;;;;;1.72;100.00;101621.36;1732547;81;21166;-50
2021/01/04 04:32:56;;;;;;;0.30;0.30;;;;;;;1.70;100.00;101618.54;1732628;82;21142;-50
2021/01/04 04:35:25;;;;;;;0.30;0.30;;;;;;;1.67;100.00;101610.33;1732656;81;21501;-50
2021/01/04 04:37:52;;;;;;;2.33;1.15;;;;;;;1.64;100.00;101603.98;1732625;82;21178;-50
2021/01/04 04:40:23;;;;;;;0.33;0.33;;;;;;;1.62;100.00;101603.34;1732369;81;21608;-50
2021/01/04 04:43:00;;;;;;;0.10;0.10;;;;;;;1.63;100.00;101604.16;1732449;82;21600;-50
2021/01/04 04:45:30;;;;;;;5.08;1.47;;;;;;;1.61;100.00;101601.68;1732496;81;21134;-51
2021/01/04 04:48:05;;;;;;;1.22;1.22;;;;;;;1.60;100.00;101600.00;1716182;82;21114;-50
2021/01/04 04:50:55;;;;;;;2.00;1.52;;;;;;;1.59;100.00;101602.91;1703240;82;21541;-50
2021/01/04 04:53:48;;;;;;;5.17;2.83;;;;;;;1.57;100.00;101601.73;1703175;82;21583;-51
2021/01/04 04:56:33;;;;;;;1.67;1.57;;;;;;;1.58;100.00;101599.34;1703354;84;21180;-50
2021/01/04 04:59:11;;;;;;;1.20;1.20;;;;;;;1.56;100.00;101594.69;1703451;82;21418;-50
2021/01/04 05:01:50;;;;;;;1.75;1.65;;;;;;;1.56;100.00;101600.08;1703420;84;21214;-56
2021/01/04 05:05:08;;;;;;;2.37;1.40;;;;;;;1.55;100.00;101599.73;1703366;82;21141;-50
2021/01/04 05:07:46;;;;;;;2.15;1.57;;;;;;;1.56;100.00;101606.81;1701834;83;21174;-50
2021/01/04 05:10:24;;;;;;;7.40;1.47;;;;;;;1.57;100.00;101601.73;1698016;83;21509;-50
2021/01/04 05:13:14;;;;;;;2.77;1.37;;;;;;;1.55;100.00;101601.61;1699155;83;21480;-50
2021/01/04 05:16:04;;;;;;;0.72;0.72;;;;;;;1.54;100.00;101611.55;1727415;82;21138;-50
2021/01/04 05:19:08;;;;;;;0.82;0.82;;;;;;;1.52;100.00;101605.52;1727391;83;21130;-50
2021/01/04 05:22:12;;;;;;;0.37;0.37;;;;;;;1.49;100.00;101612.13;1681020;85;21165;-50
2021/01/04 05:25:18;;;;;;;0.20;0.20;;;;;;;1.47;100.00;101611.99;1689100;83;21126;-50
2021/01/04 05:28:35;;;;;;;1.85;1.70;;;;;;;1.47;100.00;101614.17;1713561;83;21161;-50
2021/01/04 05:31:27;;;;;;;1.27;1.20;;;;;;;1.48;100.00;101601.04;1727278;82;21114;-50
2021/01/04 05:34:12;;;;;;;1.75;1.42;;;;;;;1.47;100.00;101602.05;1727360;82;21114;-50
2021/01/04 05:37:01;;;;;;;1.60;1.47;;;;;;;1.45;100.00;101589.28;1727208;82;21201;-50
2021/01/04 05:40:07;;;;;;;1.07;1.07;;;;;;;1.46;100.00;101594.17;1727088;83;21134;-50
2021/01/04 05:43:01;;;;;;;2.35;1.17;;;;;;;1.46;100.00;101592.83;1727080;82;21117;-50
2021/01/04 05:45:48;;;;;;;1.27;0.45;;;;;;;1.46;100.00;101587.44;1726970;82;21130;-50
2021/01/04 05:48:57;;;;;;;0.95;0.78;;;;;;;1.46;100.00;101583.41;1726930;81;21130;-51
2021/01/04 05:51:41;;;;;;;0.35;0.35;;;;;;;1.44;100.00;101591.66;1709571;83;21637;-50
2021/01/04 05:54:08;;;;;;;0.90;0.90;;;;;;;1.43;100.00;101589.15;1726450;81;21185;-50
2021/01/04 05:56:35;;;;;;;0.10;0.10;;;;;;;1.43;100.00;101594.02;1727263;83;21114;-51
2021/01/04 05:59:11;;;;;;;0.47;0.47;;;;;;;1.42;100.00;101592.36;1727168;81;21457;-50
2021/01/04 06:01:43;;;;;;;0.23;0.23;;;;;;;1.42;100.00;101595.57;1727197;83;21627;-50
2021/01/04 06:04:23;;;;;;;1.67;1.60;;;;;;;1.40;100.00;101598.44;1727031;81;21158;-50
2021/01/04 06:07:00;;;;;;;1.85;1.27;;;;;;;1.41;100.00;101601.96;1723734;83;21134;-50
2021/01/04 06:09:29;;;;;;;2.27;1.20;;;;;;;1.39;100.00;101612.12;1731948;81;21173;-50
2021/01/04 06:12:06;;;;;;;0.82;0.82;;;;;;;1.37;100.00;101608.78;1732457;82;21134;-50
2021/01/04 06:14:35;;;;;;;1.62;0.75;;;;;;;1.38;100.00;101609.09;1732371;81;21163;-50
2021/01/04 06:17:06;;;;;;;0.95;0.93;;;;;;;1.39;100.00;101602.69;1732564;82;21149;-50
2021/01/04 06:19:40;;;;;;;0.30;0.30;;;;;;;1.41;100.00;101601.96;1732354;81;21121;-50
2021/01/04 06:22:14;;;;;;;1.32;0.57;;;;;;;1.42;100.00;101608.52;1731896;82;21497;-50
2021/01/04 06:24:41;;;;;;;0.80;0.80;;;;;;;1.45;100.00;101611.34;1731982;82;21134;-50
2021/01/04 06:27:20;;;;;;;2.42;2.17;;;;;;;1.47;100.00;101607.95;1732261;82;21430;-50
2021/01/04 06:29:50;;;;;;;9.38;0.90;;;;;;;1.47;100.00;101603.91;1729641;82;21599;-50
2021/01/04 06:32:25;;;;;;;0.37;0.37;;;;;;;1.48;100.00;101602.39;1732283;82;21183;-50
2021/01/04 06:35:19;;;;;;;1.55;1.45;;;;;;;1.49;100.00;101597.83;1732291;82;21118;-50
2021/01/04 06:37:46;;;;;;;1.07;0.78;;;;;;;1.49;100.00;101598.66;1732240;82;21202;-50
2021/01/04 06:40:31;;;;;;;0.00;0.00;;;;;;;1.52;100.00;101596.09;1732443;81;21139;-50
2021/01/04 06:43:24;;;;;;;0.90;0.80;;;;;;;1.53;100.00;101591.53;1732757;82;21169;-50
2021/01/04 06:46:33;;;;;;;0.17;0.17;;;;;;;1.55;100.00;101590.31;1732419;82;21177;-50
2021/01/04 06:49:19;;;;;;;1.55;0.55;;;;;;;1.58;100.00;101595.31;1732465;81;21153;-50
2021/01/04 06:52:36;;;;;;;0.15;0.15;;;;;;;1.62;100.00;101593.91;1732631;82;21137;-50
2021/01/04 06:55:24;;;;;;;0.40;0.40;;;;;;;1.64;100.00;101598.59;1730405;81;21425;-50
2021/01/04 06:58:36;;;;;;;0.70;0.70;;;;;;;1.68;100.00;101605.77;1729306;82;21316;-51
2021/01/04 07:01:14;;;;;;;1.55;1.05;;;;;;;1.70;100.00;101605.89;1707172;82;21153;-50
2021/01/04 07:04:14;;;;;;;0.65;0.53;;;;;;;1.72;100.00;101611.94;1732402;81;21173;-50
2021/01/04 07:07:22;;;;;;;0.20;0.20;;;;;;;1.74;100.00;101606.36;1732507;82;21185;-50
2021/01/04 07:10:28;;;;;;;0.10;0.10;;;;;;;1.77;100.00;101609.19;1686594;83;21161;-51
2021/01/04 07:13:10;;;;;;;2.27;2.02;;;;;;;1.81;100.00;101619.39;1660037;85;21380;-50
2021/01/04 07:16:06;;;;;;;0.72;0.72;;;;;;;1.86;100.00;101614.77;1677170;85;21482;-50
2021/01/04 07:18:44;;;;;;;0.70;0.65;;;;;;;1.90;100.00;101616.89;1659307;84;21157;-51
2021/01/04 07:21:20;;;;;;;3.50;1.52;;;;;;;1.95;100.00;101627.06;1679822;85;21139;-50
2021/01/04 07:24:00;;;;;;;2.15;1.82;;;;;;;2.01;100.00;101626.31;1662180;82;21150;-50
2021/01/04 07:26:59;;;;;;;0.88;0.88;;;;;;;2.06;100.00;101620.34;1707972;83;21457;-50
2021/01/04 07:29:54;;;;;;;2.87;0.47;;;;;;;2.12;100.00;101621.72;1679836;84;21162;-50
2021/01/04 07:32:44;;;;;;;1.90;1.75;;;;;;;2.17;100.00;101623.02;1649390;85;21138;-50
2021/01/04 07:35:29;;;;;;;0.98;0.80;;;;;;;2.24;100.00;101624.73;1679876;84;21170;-50
2021/01/04 07:38:19;;;;;;;1.10;0.50;;;;;;;2.28;100.00;101627.89;1685652;83;21587;-50
2021/01/04 07:41:11;;;;;;;0.82;0.82;;;;;;;2.33;100.00;101628.95;1677739;85;21577;-51
2021/01/04 07:43:59;;;;;;;1.15;1.05;;;;;;;2.36;100.00;101627.73;1721714;83;21270;-51
2021/01/04 07:46:44;;;;;;;0.35;0.35;;;;;;;2.40;100.00;101623.63;1722278;83;21117;-51
2021/01/04 07:49:32;;;;;;;2.45;0.60;;;;;;;2.44;100.00;101624.88;1696774;82;21198;-51
2021/01/04 07:52:50;;;;;;;0.62;0.62;;;;;;;2.47;100.00;101635.78;1703268;84;21125;-50
2021/01/04 07:55:41;;;;;;;1.35;1.12;;;;;;;2.51;100.00;101642.47;1675307;84;21161;-51
2021/01/04 07:58:34;;;;;;;0.98;0.88;;;;;;;2.57;100.00;101649.77;1637254;86;21215;-51
2021/01/04 08:01:32;;;;;;;4.50;0.95;;;;;;;2.61;100.00;101639.42;1706410;82;21128;-51
2021/01/04 08:04:26;;;;;;;9.55;0.70;;;;;;;2.63;100.00;101640.06;1702854;84;21194;-51
2021/01/04 08:07:12;;;;;;;0.13;0.13;;;;;;;2.66;100.00;101636.96;1702646;84;21511;-51
2021/01/04 08:10:05;;;;;;;1.55;1.45;;;;;;;2.68;100.00;101636.25;1719587;81;21630;-51
2021/01/04 08:13:09;;;;;;;0.98;0.98;;;;;;;2.71;100.00;101641.25;1787047;80;21147;-51
2021/01/04 08:16:03;;;;;;;0.60;0.35;;;;;;;2.72;100.00;101646.95;1787608;78;21138;-51
2021/01/04 08:18:31;;;;;;;2.22;1.47;;;;;;;2.73;100.00;101646.77;1758181;80;21140;-51
2021/01/04 08:21:09;;;;;;;2.25;1.50;;;;;;;2.75;100.00;101641.18;1782024;80;21113;-51
2021/01/04 08:23:51;;;;;;;1.35;0.85;;;;;;;2.76;100.00;101637.44;1756560;80;21692;-51
2021/01/04 08:27:13;;;;;;;0.72;0.68;;;;;;;2.78;100.00;101644.30;1787801;80;21133;-51
2021/01/04 08:29:50;;;;;;;0.50;0.50;;;;;;;2.79;100.00;101647.83;1790687;80;21142;-51
2021/01/04 08:32:44;;;;;;;1.17;1.12;;;;;;;2.80;100.00;101658.44;1790711;80;21138;-51
2021/01/04 08:35:19;;;;;;;0.10;0.10;;;;;;;2.82;100.00;101657.39;1706890;83;21144;-51
2021/01/04 08:37:46;;;;;;;0.20;0.20;;;;;;;2.84;100.00;101649.41;1722050;82;21145;-51
2021/01/04 08:40:30;;;;;;;0.80;0.75;;;;;;;2.84;100.00;101645.89;1731167;80;21139;-51
2021/01/04 08:43:06;;;;;;;1.62;1.52;;;;;;;2.87;100.00;101650.39;1732245;82;21147;-51
2021/01/04 08:45:45;;;;;;;2.25;1.57;;;;;;;2.88;100.00;101650.70;1732131;82;21129;-51
2021/01/04 08:48:19;;;;;;;1.70;1.60;;;;;;;2.91;100.00;101639.48;1731642;82;21142;-50
2021/01/04 08:51:14;;;;;;;1.65;1.00;;;;;;;2.95;100.00;101640.77;1732076;82;21199;-50
2021/01/04 08:53:55;;;;;;;1.47;1.47;;;;;;;2.99;100.00;101633.09;1731926;81;21014;-51
2021/01/04 08:56:44;;;;;;;0.97;0.97;;;;;;;3.05;100.00;101640.92;1721680;82;21126;-51
2021/01/04 08:59:17;;;;;;;0.23;0.23;;;;;;;3.08;100.00;101645.39;1731990;81;21113;-51
2021/01/04 09:01:56;;;;;;;0.82;0.82;;;;;;;3.11;100.00;101654.97;1730976;82;21557;-51
2021/01/04 09:04:35;;;;;;;0.40;0.40;;;;;;;3.15;100.00;101653.02;1731999;81;21122;-51
2021/01/04 09:07:19;;;;;;;1.57;0.95;;;;;;;3.20;100.00;101643.79;1731955;82;21477;-51
2021/01/04 09:09:58;;;;;;;0.72;0.72;;;;;;;3.24;100.00;101645.59;1731917;81;21126;-51
2021/01/04 09:12:42;;;;;;;0.72;0.72;;;;;;;3.25;100.00;101641.84;1731500;81;21156;-51
2021/01/04 09:15:27;;;;;;;0.47;0.30;;;;;;;3.28;100.00;101635.20;1732044;82;21137;-51
2021/01/04 09:18:03;;;;;;;4.10;0.65;;;;;;;3.33;100.00;101637.60;1731500;82;21525;-51
2021/01/04 09:20:47;;;;;;;5.10;1.90;;;;;;;3.36;100.00;101641.77;1731952;82;21204;-51
2021/01/04 09:23:29;;;;;;;0.53;0.50;;;;;;;3.36;100.00;101637.22;1708515;82;21129;-51
2021/01/04 09:26:26;;;;;;;0.50;0.25;;;;;;;3.38;99.74;101627.02;1731991;82;21107;-51
2021/01/04 09:29:25;;;;;;;0.80;0.80;;;;;;;3.47;99.68;101614.70;1827024;76;22744;-50
2021/01/04 09:32:06;;;;;;;2.42;2.00;;;;;;;3.47;99.64;101609.29;1785818;80;21651;-51
2021/01/04 09:34:33;;;;;;;0.30;0.30;;;;;;;3.52;99.50;101612.21;1802590;78;21122;-50
2021/01/04 09:37:11;;;;;;;2.92;1.35;;;;;;;3.56;99.33;101609.39;1818059;78;21114;-53
2021/01/04 09:39:39;;;;;;;0.47;0.47;;;;;;;3.61;99.10;101598.30;1818063;78;21133;-53
2021/01/04 09:42:12;;;;;;;0.40;0.40;;;;;;;3.65;98.96;101591.43;1818105;78;21086;-53
2021/01/04 09:44:39;;;;;;;0.30;0.30;;;;;;;3.70;98.86;101594.88;1816962;78;21063;-53
2021/01/04 09:47:12;;;;;;;0.95;0.62;;;;;;;3.72;98.49;101593.33;1796072;78;21456;-53
2021/01/04 09:49:44;;;;;;;1.32;1.22;;;;;;;3.74;98.34;101592.61;1726518;82;21162;-53
2021/01/04 09:52:22;;;;;;;0.50;0.50;;;;;;;3.76;98.25;101582.39;1721152;81;21512;-53
2021/01/04 09:54:55;;;;;;;0.30;0.30;;;;;;;3.79;98.11;101580.65;1701869;83;21122;-53
2021/01/04 09:57:24;;;;;;;1.25;1.17;;;;;;;3.79;97.88;101574.72;1718232;81;21154;-53
2021/01/04 09:59:53;;;;;;;1.35;0.55;;;;;;;3.81;97.85;101570.47;1751913;81;21118;-53
2021/01/04 10:02:25;;;;;;;0.95;0.62;;;;;;;3.82;97.60;101572.95;1724585;83;21217;-53
2021/01/04 10:04:53;;;;;;;2.92;1.22;;;;;;;3.86;97.35;101574.73;1724719;83;21577;-50
2021/01/04 10:07:28;;;;;;;1.32;1.22;;;;;;;3.89;97.25;101570.25;1732948;82;21402;-50
2021/01/04 10:09:56;;;;;;;0.50;0.50;;;;;;;3.91;96.76;101572.73;1732766;82;21608;-50
2021/01/04 10:12:25;;;;;;;0.15;0.15;;;;;;;3.90;96.34;101568.38;1732897;82;21142;-50
2021/01/04 10:14:57;;;;;;;0.47;0.47;;;;;;;3.92;96.49;101556.84;1731969;82;21526;-50
2021/01/04 10:17:34;;;;;;;0.65;0.65;;;;;;;3.96;96.55;101560.80;1733710;81;21114;-50
2021/01/04 10:20:06;;;;;;;1.87;1.00;;;;;;;3.98;96.47;101554.14;1733009;82;21126;-50
2021/01/04 10:22:38;;;;;;;1.30;1.22;;;;;;;3.99;96.20;101553.61;1743003;81;21118;-51
2021/01/04 10:25:16;;;;;;;1.05;1.05;;;;;;;3.99;95.93;101559.02;1763999;81;21635;-51
2021/01/04 10:27:44;;;;;;;1.42;1.32;;;;;;;3.97;95.81;101562.45;1763540;80;21433;-52
2021/01/04 10:30:14;;;;;;;1.10;0.85;;;;;;;3.97;95.45;101563.27;1728661;81;21121;-51
2021/01/04 10:32:42;;;;;;;0.62;0.62;;;;;;;3.98;95.07;101561.39;1763359;81;21110;-51
2021/01/04 10:35:22;;;;;;;5.15;1.05;;;;;;;3.98;95.13;101569.51;1734583;81;21150;-51
2021/01/04 10:38:11;;;;;;;1.92;0.57;;;;;;;3.98;94.97;101566.31;1728198;82;21181;-51
2021/01/04 10:40:48;;;;;;;1.15;1.05;;;;;;;3.97;95.15;101569.21;1732597;81;21141;-51
2021/01/04 10:43:22;;;;;;;2.05;1.10;;;;;;;4.01;95.06;101570.47;1732823;82;21564;-51
2021/01/04 10:45:51;;;;;;;1.67;1.55;;;;;;;4.03;95.08;101570.57;1728301;82;21613;-52
2021/01/04 10:48:30;;;;;;;2.05;1.90;;;;;;;4.04;95.11;101567.34;1735966;81;21114;-52
2021/01/04 10:51:00;;;;;;;4.35;1.40;;;;;;;4.04;94.90;101570.05;1706029;81;21616;-52
2021/01/04 10:53:37;;;;;;;1.47;1.42;;;;;;;3.96;94.68;101574.32;1744263;81;21198;-52
2021/01/04 10:56:20;;;;;;;0.93;0.93;;;;;;;3.92;94.70;101570.36;1741116;81;21151;-52
2021/01/04 10:59:05;;;;;;;1.90;1.75;;;;;;;3.84;94.70;101573.58;1732992;81;21145;-52
2021/01/04 11:01:35;;;;;;;2.25;2.05;;;;;;;3.73;94.53;101574.70;1743296;81;21153;-52
2021/01/04 11:04:09;;;;;;;2.15;2.05;;;;;;;3.62;94.57;101559.94;1741521;81;21114;-52
2021/01/04 11:06:42;;;;;;;1.05;1.05;;;;;;;3.55;94.96;101563.15;1735121;81;21177;-52
2021/01/04 11:09:23;;;;;;;0.80;0.40;;;;;;;3.45;94.72;101556.27;1733532;81;21130;-52
2021/01/04 11:11:51;;;;;;;1.30;1.20;;;;;;;3.34;94.84;101543.37;1734883;81;21642;-51
2021/01/04 11:14:22;;;;;;;1.20;0.62;;;;;;;3.29;95.45;101546.34;1752551;81;21521;-52
2021/01/04 11:16:53;;;;;;;5.60;1.32;;;;;;;3.29;95.70;101550.40;1756047;81;21166;-52
2021/01/04 11:19:31;;;;;;;0.82;0.53;;;;;;;3.29;95.71;101549.91;1761489;81;21149;-52
2021/01/04 11:22:21;;;;;;;7.78;0.53;;;;;;;3.29;95.88;101553.96;1748769;81;21142;-51
2021/01/04 11:24:49;;;;;;;2.50;1.52;;;;;;;3.27;95.86;101556.03;1694199;81;21156;-52
2021/01/04 11:27:17;;;;;;;1.10;1.00;;;;;;;3.23;95.90;101562.86;1732302;81;22060;-52
2021/01/04 11:29:44;;;;;;;0.42;0.42;;;;;;;3.21;96.11;101555.48;1734806;81;21146;-52
2021/01/04 11:32:13;;;;;;;0.42;0.42;;;;;;;3.19;96.14;101560.24;1756927;81;21204;-52
2021/01/04 11:34:48;;;;;;;3.00;1.85;;;;;;;3.16;96.21;101562.83;1751121;81;21110;-52
2021/01/04 11:37:17;;;;;;;1.30;1.17;;;;;;;3.16;96.35;101551.20;1732703;81;21561;-47
2021/01/04 11:39:46;;;;;;;1.37;1.20;;;;;;;3.15;96.45;101562.53;1741740;81;21548;-46
2021/01/04 11:42:13;;;;;;;1.25;1.25;;;;;;;3.12;96.26;101567.00;1744217;81;21126;-47
2021/01/04 11:44:42;;;;;;;0.68;0.53;;;;;;;3.08;96.38;101564.90;1741982;81;21162;-47
2021/01/04 11:47:10;;;;;;;1.75;1.65;;;;;;;3.04;96.47;101561.75;1727095;81;21141;-47
2021/01/04 11:49:37;;;;;;;0.70;0.70;;;;;;;3.00;96.52;101563.21;1727108;81;21165;-47
2021/01/04 11:52:05;;;;;;;2.55;1.65;;;;;;;2.94;96.46;101568.91;1733341;81;21536;-46
2021/01/04 11:54:32;;;;;;;3.00;1.87;;;;;;;2.91;96.62;101567.94;1727334;81;21674;-47
2021/01/04 11:56:59;;;;;;;0.60;0.60;;;;;;;2.84;96.72;101565.72;1737351;81;21127;-48
2021/01/04 11:59:27;;;;;;;0.68;0.68;;;;;;;2.82;96.91;101569.66;1739977;81;21620;-47
2021/01/04 12:01:54;;;;;;;2.15;0.78;;;;;;;2.75;96.84;101572.34;1732728;81;21162;-47
2021/01/04 12:04:22;;;;;;;0.78;0.75;;;;;;;2.69;96.95;101569.91;1739157;81;21151;-47
2021/01/04 12:06:50;;;;;;;1.12;0.70;;;;;;;2.63;97.06;101563.16;1757428;81;21162;-47
2021/01/04 12:09:18;;;;;;;2.10;0.85;;;;;;;2.54;97.26;101567.34;1754869;81;21153;-46
2021/01/04 12:11:47;;;;;;;0.98;0.85;;;;;;;2.48;97.53;101564.10;1737091;81;21178;-46
2021/01/04 12:14:16;;;;;;;1.92;1.62;;;;;;;2.45;97.73;101573.95;1732542;81;21142;-46
2021/01/04 12:16:43;;;;;;;3.42;1.05;;;;;;;2.43;97.93;101572.48;1737745;81;21502;-48
2021/01/04 12:19:11;;;;;;;0.50;0.50;;;;;;;2.40;98.07;101568.31;1700417;83;21130;-48
2021/01/04 12:21:39;;;;;;;0.62;0.62;;;;;;;2.38;98.25;101563.62;1727637;81;21161;-47
2021/01/04 12:24:07;;;;;;;1.25;1.25;;;;;;;2.35;98.30;101558.12;1733004;81;21189;-47
2021/01/04 12:26:34;;;;;;;1.07;1.07;;;;;;;2.34;98.43;101561.00;1728645;81;21118;-46
2021/01/04 12:29:01;;;;;;;0.25;0.25;;;;;;;2.29;98.51;101564.28;1726803;81;21413;-47